JBU378 KATL-KCID
Flight info
| Callsign | JBU378 |
|---|---|
| Flight time | 1h 56m |
| Altitude | 36000 |
| Route | PENCL2 JAACE PXV SPI IOW |
| Aircraft | A320/M-SDE3FGHIRWY/LB1 |
Departure
| Time | 2026-04-15 08:47 |
|---|---|
| Airport | Hartsfield Jackson Atlanta International Airport (KATL) |
Arrival
| Time | 2026-04-15 10:43 |
|---|---|
| Airport | The Eastern Iowa Airport (KCID) |
| Time | Latitude | Longitude | Altitude | Speed | Heading |
|---|---|---|---|---|---|
| 2026-04-15 08:37 | 33.64001 | -84.44205 | 1006 ft | 0 kts | 268° |
| 2026-04-15 08:38 | 33.64001 | -84.44190 | 1006 ft | 2 kts | 268° |
| 2026-04-15 08:38 | 33.64002 | -84.44172 | 1006 ft | 2 kts | 268° |
| 2026-04-15 08:38 | 33.64002 | -84.44153 | 1006 ft | 2 kts | 268° |
| 2026-04-15 08:39 | 33.64003 | -84.44139 | 1006 ft | 2 kts | 268° |
| 2026-04-15 08:39 | 33.64004 | -84.44120 | 1006 ft | 2 kts | 315° |
| 2026-04-15 08:39 | 33.63990 | -84.44116 | 1007 ft | 2 kts | 0° |
| 2026-04-15 08:39 | 33.63987 | -84.44116 | 1007 ft | 0 kts | 354° |
| 2026-04-15 08:40 | 33.64001 | -84.44117 | 1006 ft | 3 kts | 358° |
| 2026-04-15 08:40 | 33.64033 | -84.44118 | 1006 ft | 6 kts | 358° |
| 2026-04-15 08:40 | 33.64078 | -84.44119 | 1006 ft | 8 kts | 359° |
| 2026-04-15 08:40 | 33.64138 | -84.44118 | 1006 ft | 10 kts | 1° |
| 2026-04-15 08:41 | 33.64213 | -84.44117 | 1006 ft | 12 kts | 0° |
| 2026-04-15 08:41 | 33.64306 | -84.44117 | 1006 ft | 15 kts | 0° |
| 2026-04-15 08:41 | 33.64413 | -84.44122 | 1007 ft | 16 kts | 360° |
| 2026-04-15 08:41 | 33.64494 | -84.44039 | 1007 ft | 17 kts | 68° |
| 2026-04-15 08:42 | 33.64516 | -84.43894 | 1008 ft | 18 kts | 81° |
| 2026-04-15 08:42 | 33.64536 | -84.43735 | 1010 ft | 20 kts | 81° |
| 2026-04-15 08:42 | 33.64541 | -84.43561 | 1010 ft | 22 kts | 91° |
| 2026-04-15 08:42 | 33.64542 | -84.43371 | 1010 ft | 0 kts | 89° |
| 2026-04-15 08:43 | 33.64547 | -84.42436 | 1034 ft | 174 kts | 90° |
| 2026-04-15 08:43 | 33.64540 | -84.41669 | 1015 ft | 21 kts | 93° |
| 2026-04-15 08:43 | 33.64555 | -84.41637 | 1036 ft | 0 kts | 90° |
| 2026-04-15 08:43 | 33.64540 | -84.41617 | 1035 ft | 18 kts | 89° |
| 2026-04-15 08:44 | 33.64543 | -84.41389 | 1036 ft | 29 kts | 90° |
| 2026-04-15 08:44 | 33.64543 | -84.41139 | 1036 ft | 31 kts | 89° |
| 2026-04-15 08:44 | 33.64544 | -84.40891 | 1035 ft | 16 kts | 95° |
| 2026-04-15 08:44 | 33.64546 | -84.40833 | 1035 ft | 17 kts | 70° |
| 2026-04-15 08:45 | 33.64589 | -84.40805 | 1035 ft | 5 kts | 0° |
| 2026-04-15 08:45 | 33.64592 | -84.40805 | 1035 ft | 0 kts | 0° |
| 2026-04-15 08:45 | 33.64610 | -84.40806 | 1034 ft | 5 kts | 358° |
| 2026-04-15 08:46 | 33.64657 | -84.40812 | 1034 ft | 8 kts | 343° |
| 2026-04-15 08:46 | 33.64680 | -84.40855 | 1035 ft | 0 kts | 271° |
| 2026-04-15 08:46 | 33.64681 | -84.40951 | 1036 ft | 45 kts | 269° |
| 2026-04-15 08:46 | 33.64679 | -84.41377 | 1039 ft | 106 kts | 270° |
| 2026-04-15 08:47 | 33.64679 | -84.43030 | 1207 ft | 178 kts | 271° |
| 2026-04-15 08:47 | 33.64689 | -84.44058 | 1595 ft | 192 kts | 270° |
| 2026-04-15 08:47 | 33.64694 | -84.45802 | 2112 ft | 221 kts | 270° |
| 2026-04-15 08:47 | 33.64946 | -84.47711 | 2756 ft | 238 kts | 289° |
| 2026-04-15 08:48 | 33.65599 | -84.49568 | 3506 ft | 250 kts | 296° |
| 2026-04-15 08:48 | 33.66429 | -84.51330 | 4219 ft | 234 kts | 303° |
| 2026-04-15 08:48 | 33.67392 | -84.52908 | 4918 ft | 243 kts | 309° |
| 2026-04-15 08:48 | 33.68394 | -84.54702 | 5320 ft | 264 kts | 297° |
| 2026-04-15 08:49 | 33.69277 | -84.56621 | 5713 ft | 270 kts | 307° |
| 2026-04-15 08:49 | 33.70753 | -84.57979 | 6112 ft | 273 kts | 340° |
| 2026-04-15 08:49 | 33.72476 | -84.58309 | 6487 ft | 276 kts | 356° |
| 2026-04-15 08:49 | 33.74421 | -84.58350 | 6791 ft | 283 kts | 0° |
| 2026-04-15 08:50 | 33.76394 | -84.58294 | 7170 ft | 286 kts | 1° |
| 2026-04-15 08:50 | 33.78388 | -84.58214 | 7563 ft | 288 kts | 1° |
| 2026-04-15 08:50 | 33.80397 | -84.58139 | 7936 ft | 289 kts | 0° |
| 2026-04-15 08:50 | 33.82411 | -84.58089 | 8325 ft | 291 kts | 359° |
| 2026-04-15 08:51 | 33.84436 | -84.58110 | 8717 ft | 292 kts | 353° |
| 2026-04-15 08:51 | 33.86415 | -84.58639 | 9120 ft | 292 kts | 342° |
| 2026-04-15 08:51 | 33.88374 | -84.59280 | 9522 ft | 293 kts | 342° |
| 2026-04-15 08:51 | 33.90345 | -84.59923 | 9948 ft | 295 kts | 342° |
| 2026-04-15 08:52 | 33.92332 | -84.60569 | 10333 ft | 296 kts | 342° |
| 2026-04-15 08:52 | 33.94327 | -84.61216 | 10707 ft | 298 kts | 342° |
| 2026-04-15 08:52 | 33.96331 | -84.61865 | 11085 ft | 299 kts | 342° |
| 2026-04-15 08:52 | 33.98351 | -84.62518 | 11468 ft | 301 kts | 343° |
| 2026-04-15 08:53 | 34.00380 | -84.63171 | 11857 ft | 302 kts | 343° |
| 2026-04-15 08:53 | 34.02419 | -84.63829 | 12250 ft | 304 kts | 343° |
| 2026-04-15 08:53 | 34.04467 | -84.64494 | 12648 ft | 305 kts | 343° |
| 2026-04-15 08:53 | 34.06528 | -84.65165 | 13054 ft | 307 kts | 343° |
| 2026-04-15 08:54 | 34.08599 | -84.65839 | 13458 ft | 309 kts | 343° |
| 2026-04-15 08:54 | 34.10679 | -84.66512 | 13872 ft | 311 kts | 343° |
| 2026-04-15 08:54 | 34.12770 | -84.67188 | 14250 ft | 312 kts | 342° |
| 2026-04-15 08:54 | 34.14880 | -84.67869 | 14613 ft | 317 kts | 342° |
| 2026-04-15 08:55 | 34.17054 | -84.68571 | 14989 ft | 329 kts | 342° |
| 2026-04-15 08:55 | 34.19226 | -84.69275 | 15354 ft | 341 kts | 342° |
| 2026-04-15 08:55 | 34.21601 | -84.70047 | 15748 ft | 352 kts | 342° |
| 2026-04-15 08:55 | 34.24007 | -84.70831 | 16137 ft | 362 kts | 342° |
| 2026-04-15 08:56 | 34.26461 | -84.71657 | 16525 ft | 371 kts | 341° |
| 2026-04-15 08:56 | 34.29001 | -84.72643 | 16940 ft | 379 kts | 339° |
| 2026-04-15 08:56 | 34.31442 | -84.73682 | 17332 ft | 387 kts | 338° |
| 2026-04-15 08:56 | 34.34010 | -84.74815 | 17743 ft | 394 kts | 337° |
| 2026-04-15 08:57 | 34.36599 | -84.75960 | 18166 ft | 397 kts | 337° |
| 2026-04-15 08:57 | 34.39197 | -84.77095 | 18554 ft | 399 kts | 337° |
| 2026-04-15 08:57 | 34.41827 | -84.78229 | 18917 ft | 401 kts | 338° |
| 2026-04-15 08:57 | 34.44463 | -84.79351 | 19269 ft | 404 kts | 338° |
| 2026-04-15 08:58 | 34.47125 | -84.80476 | 19662 ft | 406 kts | 338° |
| 2026-04-15 08:58 | 34.52482 | -84.82734 | 20417 ft | 410 kts | 338° |
| 2026-04-15 08:58 | 34.55198 | -84.83882 | 20804 ft | 412 kts | 338° |
| 2026-04-15 08:59 | 34.57910 | -84.85031 | 21190 ft | 415 kts | 338° |
| 2026-04-15 08:59 | 34.60638 | -84.86189 | 21592 ft | 417 kts | 337° |
| 2026-04-15 08:59 | 34.63379 | -84.87358 | 22011 ft | 419 kts | 337° |
| 2026-04-15 08:59 | 34.66148 | -84.88540 | 22418 ft | 422 kts | 337° |
| 2026-04-15 09:00 | 34.68925 | -84.89727 | 22828 ft | 425 kts | 337° |
| 2026-04-15 09:00 | 34.71679 | -84.90905 | 23238 ft | 427 kts | 337° |
| 2026-04-15 09:00 | 34.74490 | -84.92109 | 23661 ft | 429 kts | 337° |
| 2026-04-15 09:00 | 34.77318 | -84.93322 | 24024 ft | 431 kts | 337° |
| 2026-04-15 09:01 | 34.80156 | -84.94536 | 24388 ft | 433 kts | 337° |
| 2026-04-15 09:01 | 34.82995 | -84.95746 | 24739 ft | 435 kts | 337° |
| 2026-04-15 09:01 | 34.85855 | -84.96962 | 25102 ft | 436 kts | 337° |
| 2026-04-15 09:01 | 34.88738 | -84.98193 | 25479 ft | 438 kts | 337° |
| 2026-04-15 09:02 | 34.91616 | -84.99427 | 25847 ft | 439 kts | 336° |
| 2026-04-15 09:02 | 34.94497 | -85.00665 | 26230 ft | 441 kts | 336° |
| 2026-04-15 09:02 | 34.97395 | -85.01912 | 26620 ft | 442 kts | 336° |
| 2026-04-15 09:02 | 35.00300 | -85.03161 | 27003 ft | 443 kts | 336° |
| 2026-04-15 09:03 | 35.03218 | -85.04416 | 27405 ft | 444 kts | 336° |
| 2026-04-15 09:03 | 35.06140 | -85.05676 | 27814 ft | 445 kts | 336° |
| 2026-04-15 09:03 | 35.09022 | -85.06917 | 28219 ft | 446 kts | 335° |
| 2026-04-15 09:03 | 35.11805 | -85.08604 | 28632 ft | 437 kts | 320° |
| 2026-04-15 09:04 | 35.14117 | -85.10982 | 29053 ft | 433 kts | 311° |
| 2026-04-15 09:04 | 35.16066 | -85.13698 | 29473 ft | 430 kts | 304° |
| 2026-04-15 09:04 | 35.17816 | -85.16651 | 29904 ft | 428 kts | 301° |
| 2026-04-15 09:04 | 35.19476 | -85.19665 | 30325 ft | 428 kts | 300° |
| 2026-04-15 09:05 | 35.21158 | -85.22681 | 30700 ft | 429 kts | 302° |
| 2026-04-15 09:05 | 35.22900 | -85.25638 | 31044 ft | 430 kts | 303° |
| 2026-04-15 09:05 | 35.24731 | -85.28581 | 31149 ft | 438 kts | 304° |
| 2026-04-15 09:05 | 35.26639 | -85.31526 | 31156 ft | 445 kts | 305° |
| 2026-04-15 09:06 | 35.30566 | -85.37463 | 31162 ft | 451 kts | 306° |
| 2026-04-15 09:06 | 35.34494 | -85.43448 | 31171 ft | 451 kts | 305° |
| 2026-04-15 09:07 | 35.38384 | -85.49479 | 31165 ft | 450 kts | 304° |
| 2026-04-15 09:07 | 35.42247 | -85.55512 | 31173 ft | 450 kts | 304° |
| 2026-04-15 09:08 | 35.46123 | -85.61555 | 31168 ft | 450 kts | 304° |
| 2026-04-15 09:08 | 35.49988 | -85.67596 | 31148 ft | 450 kts | 304° |
| 2026-04-15 09:09 | 35.53869 | -85.73648 | 31143 ft | 452 kts | 307° |
| 2026-04-15 09:09 | 35.56222 | -85.76241 | 31140 ft | 459 kts | 320° |
| 2026-04-15 09:09 | 35.58843 | -85.78503 | 31152 ft | 460 kts | 320° |
| 2026-04-15 09:10 | 35.64112 | -85.82989 | 31147 ft | 461 kts | 321° |
| 2026-04-15 09:10 | 35.69387 | -85.87467 | 31168 ft | 461 kts | 320° |
| 2026-04-15 09:11 | 35.74667 | -85.91983 | 31159 ft | 461 kts | 320° |
| 2026-04-15 09:11 | 35.79918 | -85.96498 | 31159 ft | 461 kts | 320° |
| 2026-04-15 09:12 | 35.85174 | -86.01031 | 31167 ft | 461 kts | 320° |
| 2026-04-15 09:12 | 35.90432 | -86.05567 | 31150 ft | 460 kts | 320° |
| 2026-04-15 09:13 | 35.95681 | -86.10087 | 31152 ft | 460 kts | 320° |
| 2026-04-15 09:13 | 36.00934 | -86.14622 | 31141 ft | 460 kts | 320° |
| 2026-04-15 09:14 | 36.06176 | -86.19164 | 31141 ft | 460 kts | 320° |
| 2026-04-15 09:14 | 36.11412 | -86.23710 | 31138 ft | 460 kts | 320° |
| 2026-04-15 09:15 | 36.16583 | -86.28210 | 31133 ft | 460 kts | 320° |
| 2026-04-15 09:15 | 36.21616 | -86.32589 | 31144 ft | 460 kts | 320° |
| 2026-04-15 09:16 | 36.26722 | -86.37032 | 31141 ft | 460 kts | 320° |
| 2026-04-15 09:16 | 36.31796 | -86.41457 | 31140 ft | 460 kts | 320° |
| 2026-04-15 09:17 | 36.36997 | -86.46004 | 31142 ft | 460 kts | 320° |
| 2026-04-15 09:17 | 36.42219 | -86.50581 | 31142 ft | 460 kts | 320° |
| 2026-04-15 09:18 | 36.47457 | -86.55173 | 31147 ft | 460 kts | 320° |
| 2026-04-15 09:18 | 36.52655 | -86.59733 | 31134 ft | 460 kts | 320° |
| 2026-04-15 09:19 | 36.57876 | -86.64332 | 31098 ft | 460 kts | 320° |
| 2026-04-15 09:19 | 36.63098 | -86.68939 | 31091 ft | 460 kts | 320° |
| 2026-04-15 09:20 | 36.68319 | -86.73549 | 31092 ft | 461 kts | 320° |
| 2026-04-15 09:20 | 36.73549 | -86.78185 | 31108 ft | 461 kts | 320° |
| 2026-04-15 09:21 | 36.78780 | -86.82827 | 31093 ft | 461 kts | 320° |
| 2026-04-15 09:21 | 36.83994 | -86.87457 | 31088 ft | 460 kts | 320° |
| 2026-04-15 09:22 | 36.89222 | -86.92103 | 31081 ft | 460 kts | 320° |
| 2026-04-15 09:22 | 36.94434 | -86.96739 | 31079 ft | 460 kts | 319° |
| 2026-04-15 09:23 | 36.99617 | -87.01370 | 31083 ft | 461 kts | 319° |
| 2026-04-15 09:23 | 37.04861 | -87.06062 | 31075 ft | 461 kts | 319° |
| 2026-04-15 09:24 | 37.10052 | -87.10698 | 31066 ft | 461 kts | 319° |
| 2026-04-15 09:24 | 37.15278 | -87.15388 | 31065 ft | 462 kts | 319° |
| 2026-04-15 09:25 | 37.20506 | -87.20083 | 31085 ft | 462 kts | 319° |
| 2026-04-15 09:25 | 37.25729 | -87.24780 | 31078 ft | 462 kts | 319° |
| 2026-04-15 09:26 | 37.30948 | -87.29498 | 31060 ft | 462 kts | 319° |
| 2026-04-15 09:26 | 37.36164 | -87.34210 | 31063 ft | 462 kts | 319° |
| 2026-04-15 09:27 | 37.41391 | -87.38934 | 31050 ft | 463 kts | 319° |
| 2026-04-15 09:27 | 37.46624 | -87.43669 | 31054 ft | 463 kts | 319° |
| 2026-04-15 09:28 | 37.51850 | -87.48422 | 31044 ft | 464 kts | 319° |
| 2026-04-15 09:28 | 37.57088 | -87.53197 | 31036 ft | 464 kts | 319° |
| 2026-04-15 09:29 | 37.62322 | -87.57972 | 31029 ft | 464 kts | 319° |
| 2026-04-15 09:29 | 37.66671 | -87.61932 | 30959 ft | 464 kts | 319° |
| 2026-04-15 09:30 | 37.69290 | -87.64320 | 30852 ft | 463 kts | 319° |
| 2026-04-15 09:30 | 37.71897 | -87.66706 | 30733 ft | 463 kts | 319° |
| 2026-04-15 09:30 | 37.74508 | -87.69098 | 30615 ft | 463 kts | 319° |
| 2026-04-15 09:30 | 37.77105 | -87.71477 | 30513 ft | 462 kts | 319° |
| 2026-04-15 09:31 | 37.79710 | -87.73868 | 30395 ft | 462 kts | 319° |
| 2026-04-15 09:31 | 37.82306 | -87.76254 | 30279 ft | 462 kts | 319° |
| 2026-04-15 09:31 | 37.84914 | -87.78653 | 30165 ft | 462 kts | 319° |
| 2026-04-15 09:31 | 37.87503 | -87.81038 | 30037 ft | 461 kts | 319° |
| 2026-04-15 09:32 | 37.90100 | -87.83428 | 29902 ft | 460 kts | 319° |
| 2026-04-15 09:32 | 37.92692 | -87.85809 | 29762 ft | 459 kts | 319° |
| 2026-04-15 09:32 | 37.95273 | -87.88181 | 29629 ft | 459 kts | 319° |
| 2026-04-15 09:32 | 37.97851 | -87.90555 | 29483 ft | 458 kts | 319° |
| 2026-04-15 09:33 | 38.00428 | -87.92932 | 29212 ft | 457 kts | 319° |
| 2026-04-15 09:33 | 38.02984 | -87.95295 | 28944 ft | 455 kts | 319° |
| 2026-04-15 09:33 | 38.05535 | -87.97658 | 28678 ft | 453 kts | 319° |
| 2026-04-15 09:33 | 38.08075 | -88.00010 | 28408 ft | 451 kts | 319° |
| 2026-04-15 09:34 | 38.10604 | -88.02355 | 28141 ft | 449 kts | 319° |
| 2026-04-15 09:34 | 38.13111 | -88.04684 | 27883 ft | 447 kts | 319° |
| 2026-04-15 09:34 | 38.15612 | -88.07009 | 27628 ft | 445 kts | 319° |
| 2026-04-15 09:34 | 38.18110 | -88.09333 | 27405 ft | 443 kts | 319° |
| 2026-04-15 09:35 | 38.20598 | -88.11648 | 27151 ft | 443 kts | 319° |
| 2026-04-15 09:35 | 38.23083 | -88.13961 | 26908 ft | 441 kts | 319° |
| 2026-04-15 09:35 | 38.25518 | -88.16226 | 26660 ft | 440 kts | 319° |
| 2026-04-15 09:35 | 38.28008 | -88.18544 | 26404 ft | 438 kts | 319° |
| 2026-04-15 09:36 | 38.30463 | -88.20833 | 26178 ft | 436 kts | 319° |
| 2026-04-15 09:36 | 38.32879 | -88.23087 | 25947 ft | 434 kts | 319° |
| 2026-04-15 09:36 | 38.35340 | -88.25385 | 25703 ft | 433 kts | 319° |
| 2026-04-15 09:36 | 38.37731 | -88.27623 | 25470 ft | 431 kts | 318° |
| 2026-04-15 09:37 | 38.40141 | -88.29884 | 25241 ft | 429 kts | 318° |
| 2026-04-15 09:37 | 38.42572 | -88.32166 | 25018 ft | 427 kts | 318° |
| 2026-04-15 09:37 | 38.44930 | -88.34380 | 24986 ft | 426 kts | 318° |
| 2026-04-15 09:37 | 38.47322 | -88.36625 | 24996 ft | 426 kts | 318° |
| 2026-04-15 09:38 | 38.49707 | -88.38866 | 24995 ft | 426 kts | 318° |
| 2026-04-15 09:38 | 38.52093 | -88.41113 | 24991 ft | 426 kts | 318° |
| 2026-04-15 09:38 | 38.54482 | -88.43365 | 24987 ft | 427 kts | 318° |
| 2026-04-15 09:38 | 38.56871 | -88.45619 | 24988 ft | 427 kts | 318° |
| 2026-04-15 09:39 | 38.59258 | -88.47874 | 24994 ft | 427 kts | 318° |
| 2026-04-15 09:39 | 38.61646 | -88.50127 | 24990 ft | 427 kts | 318° |
| 2026-04-15 09:39 | 38.64045 | -88.52384 | 24990 ft | 427 kts | 318° |
| 2026-04-15 09:39 | 38.66434 | -88.54636 | 24991 ft | 427 kts | 319° |
| 2026-04-15 09:40 | 38.68833 | -88.56902 | 24960 ft | 428 kts | 319° |
| 2026-04-15 09:40 | 38.71223 | -88.59164 | 24959 ft | 428 kts | 319° |
| 2026-04-15 09:40 | 38.73617 | -88.61433 | 24955 ft | 428 kts | 319° |
| 2026-04-15 09:40 | 38.76010 | -88.63704 | 24942 ft | 428 kts | 318° |
| 2026-04-15 09:41 | 38.78405 | -88.65982 | 24940 ft | 428 kts | 318° |
| 2026-04-15 09:41 | 38.80799 | -88.68262 | 24939 ft | 428 kts | 318° |
| 2026-04-15 09:41 | 38.83164 | -88.70513 | 24939 ft | 428 kts | 318° |
| 2026-04-15 09:41 | 38.85584 | -88.72814 | 24931 ft | 428 kts | 318° |
| 2026-04-15 09:42 | 38.87957 | -88.75070 | 24931 ft | 428 kts | 318° |
| 2026-04-15 09:42 | 38.90349 | -88.77349 | 24937 ft | 429 kts | 318° |
| 2026-04-15 09:42 | 38.92738 | -88.79629 | 24928 ft | 429 kts | 318° |
| 2026-04-15 09:42 | 38.95136 | -88.81919 | 24920 ft | 430 kts | 318° |
| 2026-04-15 09:43 | 38.97533 | -88.84211 | 24919 ft | 430 kts | 318° |
| 2026-04-15 09:43 | 38.99934 | -88.86510 | 24927 ft | 430 kts | 318° |
| 2026-04-15 09:43 | 39.02330 | -88.88805 | 24915 ft | 430 kts | 318° |
| 2026-04-15 09:43 | 39.04729 | -88.91102 | 24916 ft | 430 kts | 318° |
| 2026-04-15 09:44 | 39.07129 | -88.93402 | 24912 ft | 430 kts | 318° |
| 2026-04-15 09:44 | 39.09530 | -88.95708 | 24897 ft | 430 kts | 318° |
| 2026-04-15 09:44 | 39.11918 | -88.98003 | 24691 ft | 424 kts | 318° |
| 2026-04-15 09:44 | 39.14247 | -89.00233 | 24464 ft | 411 kts | 317° |
| 2026-04-15 09:45 | 39.16511 | -89.02402 | 24234 ft | 401 kts | 317° |
| 2026-04-15 09:45 | 39.18720 | -89.04524 | 24007 ft | 392 kts | 317° |
| 2026-04-15 09:45 | 39.20887 | -89.06613 | 23776 ft | 384 kts | 317° |
| 2026-04-15 09:45 | 39.22745 | -89.08409 | 23581 ft | 378 kts | 317° |
| 2026-04-15 09:46 | 39.24825 | -89.10420 | 23338 ft | 370 kts | 317° |
| 2026-04-15 09:46 | 39.26860 | -89.12388 | 23066 ft | 363 kts | 317° |
| 2026-04-15 09:46 | 39.28857 | -89.14323 | 22805 ft | 355 kts | 316° |
| 2026-04-15 09:46 | 39.30821 | -89.16227 | 22534 ft | 351 kts | 316° |
| 2026-04-15 09:47 | 39.32767 | -89.18112 | 22275 ft | 349 kts | 316° |
| 2026-04-15 09:47 | 39.34707 | -89.19989 | 22017 ft | 348 kts | 316° |
| 2026-04-15 09:47 | 39.36622 | -89.21845 | 21780 ft | 347 kts | 316° |
| 2026-04-15 09:47 | 39.38566 | -89.23733 | 21575 ft | 346 kts | 316° |
| 2026-04-15 09:48 | 39.40490 | -89.25607 | 21322 ft | 345 kts | 315° |
| 2026-04-15 09:48 | 39.42401 | -89.27470 | 21080 ft | 344 kts | 315° |
| 2026-04-15 09:48 | 39.44304 | -89.29325 | 20836 ft | 343 kts | 315° |
| 2026-04-15 09:48 | 39.46206 | -89.31178 | 20596 ft | 341 kts | 315° |
| 2026-04-15 09:49 | 39.48102 | -89.33025 | 20350 ft | 340 kts | 315° |
| 2026-04-15 09:49 | 39.49986 | -89.34861 | 20108 ft | 339 kts | 315° |
| 2026-04-15 09:49 | 39.51869 | -89.36696 | 19868 ft | 337 kts | 315° |
| 2026-04-15 09:49 | 39.53742 | -89.38521 | 19630 ft | 336 kts | 315° |
| 2026-04-15 09:50 | 39.55577 | -89.40314 | 19397 ft | 335 kts | 315° |
| 2026-04-15 09:50 | 39.57434 | -89.42128 | 19159 ft | 333 kts | 315° |
| 2026-04-15 09:50 | 39.59452 | -89.43657 | 18941 ft | 344 kts | 333° |
| 2026-04-15 09:50 | 39.61863 | -89.44166 | 18689 ft | 359 kts | 356° |
| 2026-04-15 09:51 | 39.64319 | -89.43495 | 18477 ft | 370 kts | 19° |
| 2026-04-15 09:51 | 39.66508 | -89.41692 | 18239 ft | 376 kts | 42° |
| 2026-04-15 09:51 | 39.68085 | -89.39001 | 17969 ft | 375 kts | 65° |
| 2026-04-15 09:51 | 39.68832 | -89.35810 | 17708 ft | 368 kts | 89° |
| 2026-04-15 09:52 | 39.68667 | -89.32563 | 17447 ft | 355 kts | 112° |
| 2026-04-15 09:52 | 39.67648 | -89.29748 | 17193 ft | 337 kts | 135° |
| 2026-04-15 09:52 | 39.65981 | -89.27772 | 16942 ft | 317 kts | 159° |
| 2026-04-15 09:52 | 39.63964 | -89.26892 | 16693 ft | 298 kts | 182° |
| 2026-04-15 09:53 | 39.61975 | -89.27201 | 16446 ft | 283 kts | 206° |
| 2026-04-15 09:53 | 39.60360 | -89.28564 | 16197 ft | 277 kts | 226° |
| 2026-04-15 09:53 | 39.59342 | -89.30655 | 15949 ft | 277 kts | 250° |
| 2026-04-15 09:53 | 39.59185 | -89.33156 | 15702 ft | 286 kts | 274° |
| 2026-04-15 09:54 | 39.59938 | -89.35584 | 15453 ft | 301 kts | 298° |
| 2026-04-15 09:54 | 39.61504 | -89.37491 | 15215 ft | 317 kts | 319° |
| 2026-04-15 09:54 | 39.63408 | -89.38992 | 14984 ft | 321 kts | 322° |
| 2026-04-15 09:54 | 39.65379 | -89.40376 | 14726 ft | 326 kts | 331° |
| 2026-04-15 09:55 | 39.67573 | -89.41105 | 14479 ft | 333 kts | 342° |
| 2026-04-15 09:55 | 39.69835 | -89.41675 | 14244 ft | 328 kts | 342° |
| 2026-04-15 09:55 | 39.72069 | -89.42222 | 13997 ft | 323 kts | 342° |
| 2026-04-15 09:55 | 39.74268 | -89.42756 | 13739 ft | 319 kts | 342° |
| 2026-04-15 09:56 | 39.76427 | -89.43275 | 13488 ft | 314 kts | 342° |
| 2026-04-15 09:56 | 39.78568 | -89.43787 | 13237 ft | 311 kts | 342° |
| 2026-04-15 09:56 | 39.82776 | -89.44767 | 12756 ft | 303 kts | 342° |
| 2026-04-15 09:57 | 39.84839 | -89.45222 | 12504 ft | 300 kts | 342° |
| 2026-04-15 09:57 | 39.86890 | -89.45670 | 12251 ft | 296 kts | 342° |
| 2026-04-15 09:57 | 39.88908 | -89.46111 | 12002 ft | 293 kts | 342° |
| 2026-04-15 09:57 | 39.90917 | -89.46547 | 11675 ft | 291 kts | 342° |
| 2026-04-15 09:58 | 39.92900 | -89.46980 | 11310 ft | 288 kts | 342° |
| 2026-04-15 09:58 | 39.94872 | -89.47411 | 10952 ft | 286 kts | 342° |
| 2026-04-15 09:58 | 39.96827 | -89.47841 | 10593 ft | 284 kts | 342° |
| 2026-04-15 09:58 | 39.98771 | -89.48271 | 10234 ft | 282 kts | 342° |
| 2026-04-15 09:59 | 40.00701 | -89.48697 | 9798 ft | 280 kts | 342° |
| 2026-04-15 09:59 | 40.02610 | -89.49117 | 9281 ft | 277 kts | 342° |
| 2026-04-15 09:59 | 40.04502 | -89.49540 | 8814 ft | 274 kts | 342° |
| 2026-04-15 09:59 | 40.06377 | -89.49961 | 8302 ft | 272 kts | 342° |
| 2026-04-15 10:00 | 40.08238 | -89.50373 | 7842 ft | 270 kts | 342° |
| 2026-04-15 10:00 | 40.10085 | -89.50777 | 7355 ft | 267 kts | 342° |
| 2026-04-15 10:00 | 40.11874 | -89.51219 | 6890 ft | 262 kts | 339° |
| 2026-04-15 10:00 | 40.13658 | -89.51748 | 6415 ft | 259 kts | 338° |
| 2026-04-15 10:01 | 40.15372 | -89.52265 | 6108 ft | 248 kts | 338° |
| 2026-04-15 10:01 | 40.17033 | -89.52749 | 6146 ft | 245 kts | 338° |
| 2026-04-15 10:01 | 40.18701 | -89.53233 | 6162 ft | 246 kts | 338° |
| 2026-04-15 10:01 | 40.20396 | -89.53727 | 6182 ft | 247 kts | 338° |
| 2026-04-15 10:02 | 40.22069 | -89.54225 | 6203 ft | 247 kts | 338° |
| 2026-04-15 10:02 | 40.23730 | -89.54719 | 6226 ft | 248 kts | 338° |
| 2026-04-15 10:02 | 40.25419 | -89.55215 | 6254 ft | 248 kts | 338° |
| 2026-04-15 10:02 | 40.27087 | -89.55699 | 6325 ft | 244 kts | 338° |
| 2026-04-15 10:03 | 40.28745 | -89.56170 | 6464 ft | 244 kts | 338° |
| 2026-04-15 10:03 | 40.30411 | -89.56645 | 6600 ft | 245 kts | 338° |
| 2026-04-15 10:03 | 40.32075 | -89.57125 | 6757 ft | 245 kts | 338° |
| 2026-04-15 10:03 | 40.33751 | -89.57613 | 6845 ft | 247 kts | 338° |
| 2026-04-15 10:04 | 40.35431 | -89.58103 | 6866 ft | 248 kts | 338° |
| 2026-04-15 10:04 | 40.37110 | -89.58592 | 6866 ft | 247 kts | 338° |
| 2026-04-15 10:04 | 40.38791 | -89.59085 | 6852 ft | 247 kts | 338° |
| 2026-04-15 10:04 | 40.40469 | -89.59576 | 6852 ft | 246 kts | 338° |
| 2026-04-15 10:05 | 40.42150 | -89.60066 | 6857 ft | 247 kts | 338° |
| 2026-04-15 10:05 | 40.43826 | -89.60552 | 6857 ft | 247 kts | 338° |
| 2026-04-15 10:05 | 40.45503 | -89.61039 | 6860 ft | 247 kts | 338° |
| 2026-04-15 10:05 | 40.47189 | -89.61526 | 6859 ft | 247 kts | 338° |
| 2026-04-15 10:06 | 40.48871 | -89.62014 | 6861 ft | 248 kts | 338° |
| 2026-04-15 10:06 | 40.50545 | -89.62506 | 6860 ft | 248 kts | 338° |
| 2026-04-15 10:06 | 40.52233 | -89.63000 | 6864 ft | 248 kts | 338° |
| 2026-04-15 10:06 | 40.53916 | -89.63495 | 6866 ft | 248 kts | 338° |
| 2026-04-15 10:07 | 40.55596 | -89.63990 | 6868 ft | 248 kts | 338° |
| 2026-04-15 10:07 | 40.57280 | -89.64489 | 6869 ft | 248 kts | 339° |
| 2026-04-15 10:07 | 40.58959 | -89.64995 | 6867 ft | 248 kts | 338° |
| 2026-04-15 10:07 | 40.60642 | -89.65501 | 6870 ft | 248 kts | 338° |
| 2026-04-15 10:08 | 40.62325 | -89.66000 | 6865 ft | 246 kts | 339° |
| 2026-04-15 10:08 | 40.63992 | -89.66498 | 6869 ft | 247 kts | 338° |
| 2026-04-15 10:08 | 40.65665 | -89.66992 | 6868 ft | 247 kts | 338° |
| 2026-04-15 10:08 | 40.67344 | -89.67496 | 6868 ft | 248 kts | 338° |
| 2026-04-15 10:09 | 40.69028 | -89.68001 | 6869 ft | 248 kts | 338° |
| 2026-04-15 10:09 | 40.70714 | -89.68503 | 6869 ft | 247 kts | 338° |
| 2026-04-15 10:09 | 40.72386 | -89.68999 | 6866 ft | 246 kts | 338° |
| 2026-04-15 10:09 | 40.74065 | -89.69495 | 6868 ft | 247 kts | 338° |
| 2026-04-15 10:10 | 40.75742 | -89.69983 | 6868 ft | 248 kts | 338° |
| 2026-04-15 10:10 | 40.77427 | -89.70472 | 6867 ft | 248 kts | 338° |
| 2026-04-15 10:10 | 40.79108 | -89.70965 | 6831 ft | 248 kts | 338° |
| 2026-04-15 10:10 | 40.80800 | -89.71457 | 6833 ft | 248 kts | 338° |
| 2026-04-15 10:11 | 40.82486 | -89.71943 | 6834 ft | 248 kts | 338° |
| 2026-04-15 10:11 | 40.84172 | -89.72432 | 6795 ft | 248 kts | 338° |
| 2026-04-15 10:11 | 40.85858 | -89.72926 | 6746 ft | 248 kts | 338° |
| 2026-04-15 10:11 | 40.87549 | -89.73421 | 6523 ft | 247 kts | 338° |
| 2026-04-15 10:12 | 40.89210 | -89.73909 | 6283 ft | 244 kts | 338° |
| 2026-04-15 10:12 | 40.90863 | -89.74397 | 6050 ft | 242 kts | 338° |
| 2026-04-15 10:12 | 40.92478 | -89.74865 | 5803 ft | 239 kts | 339° |
| 2026-04-15 10:12 | 40.93572 | -89.75162 | 5638 ft | 238 kts | 339° |
| 2026-04-15 10:13 | 40.95135 | -89.75759 | 5390 ft | 230 kts | 330° |
| 2026-04-15 10:13 | 40.96616 | -89.76540 | 5145 ft | 229 kts | 328° |
| 2026-04-15 10:13 | 40.98077 | -89.77362 | 4900 ft | 226 kts | 324° |
| 2026-04-15 10:13 | 40.99383 | -89.78442 | 4663 ft | 219 kts | 315° |
| 2026-04-15 10:14 | 41.00182 | -89.79249 | 4494 ft | 218 kts | 314° |
| 2026-04-15 10:25 | 41.00188 | -89.79255 | 4496 ft | 218 kts | 314° |
| 2026-04-15 10:26 | 41.01378 | -89.80346 | 4346 ft | 216 kts | 316° |
| 2026-04-15 10:26 | 41.02561 | -89.81595 | 4100 ft | 218 kts | 314° |
| 2026-04-15 10:26 | 41.03722 | -89.82864 | 3895 ft | 213 kts | 313° |
| 2026-04-15 10:26 | 41.04861 | -89.84106 | 3826 ft | 212 kts | 314° |
| 2026-04-15 10:27 | 41.05995 | -89.85366 | 3829 ft | 214 kts | 313° |
| 2026-04-15 10:27 | 41.07140 | -89.86636 | 3830 ft | 214 kts | 313° |
| 2026-04-15 10:27 | 41.08290 | -89.87901 | 3830 ft | 215 kts | 313° |
| 2026-04-15 10:27 | 41.09421 | -89.89196 | 3829 ft | 216 kts | 309° |
| 2026-04-15 10:28 | 41.10485 | -89.90604 | 3827 ft | 216 kts | 308° |
| 2026-04-15 10:28 | 41.11515 | -89.92038 | 3830 ft | 212 kts | 306° |
| 2026-04-15 10:28 | 41.12502 | -89.93476 | 3827 ft | 211 kts | 306° |
| 2026-04-15 10:28 | 41.13488 | -89.94919 | 3842 ft | 212 kts | 306° |
| 2026-04-15 10:29 | 41.14481 | -89.96382 | 3831 ft | 215 kts | 306° |
| 2026-04-15 10:29 | 41.15545 | -89.97993 | 3830 ft | 247 kts | 306° |
| 2026-04-15 10:29 | 41.16688 | -89.99757 | 3836 ft | 254 kts | 305° |
| 2026-04-15 10:29 | 41.17840 | -90.01523 | 3827 ft | 257 kts | 305° |
| 2026-04-15 10:30 | 41.18905 | -90.03414 | 3825 ft | 256 kts | 299° |
| 2026-04-15 10:30 | 41.19854 | -90.05405 | 3826 ft | 255 kts | 295° |
| 2026-04-15 10:30 | 41.20736 | -90.07486 | 3827 ft | 254 kts | 294° |
| 2026-04-15 10:30 | 41.21567 | -90.09519 | 3827 ft | 254 kts | 294° |
| 2026-04-15 10:31 | 41.22400 | -90.11584 | 3827 ft | 254 kts | 293° |
| 2026-04-15 10:31 | 41.23232 | -90.13646 | 3826 ft | 254 kts | 294° |
| 2026-04-15 10:31 | 41.24069 | -90.15712 | 3828 ft | 254 kts | 294° |
| 2026-04-15 10:31 | 41.24908 | -90.17776 | 3832 ft | 254 kts | 294° |
| 2026-04-15 10:32 | 41.25748 | -90.19841 | 3835 ft | 254 kts | 294° |
| 2026-04-15 10:32 | 41.28034 | -90.26387 | 3844 ft | 2753 kts | 294° |
| 2026-04-15 10:32 | 41.32902 | -90.41061 | 4050 ft | 248 kts | 290° |
| 2026-04-15 10:32 | 41.33741 | -90.43147 | 4162 ft | 260 kts | 300° |
| 2026-04-15 10:33 | 41.35387 | -90.46150 | 4079 ft | 2862 kts | 303° |
| 2026-04-15 10:33 | 41.46203 | -90.68029 | 4021 ft | 2994 kts | 303° |
| 2026-04-15 10:33 | 41.54143 | -90.84097 | 7141 ft | 255 kts | 305° |
| 2026-04-15 10:33 | 41.55251 | -90.86045 | 7781 ft | 269 kts | 308° |
| 2026-04-15 10:34 | 41.56491 | -90.87966 | 8267 ft | 275 kts | 304° |
| 2026-04-15 10:34 | 41.57359 | -90.90173 | 8737 ft | 267 kts | 283° |
| 2026-04-15 10:34 | 41.57732 | -90.92629 | 8647 ft | 270 kts | 287° |
| 2026-04-15 10:34 | 41.58494 | -90.94903 | 8366 ft | 269 kts | 300° |
| 2026-04-15 10:35 | 41.59551 | -90.96975 | 8151 ft | 272 kts | 307° |
| 2026-04-15 10:35 | 41.60722 | -90.98960 | 7946 ft | 273 kts | 304° |
| 2026-04-15 10:35 | 41.61934 | -91.00914 | 7774 ft | 271 kts | 305° |
| 2026-04-15 10:35 | 41.63140 | -91.02804 | 7589 ft | 264 kts | 306° |
| 2026-04-15 10:36 | 41.64341 | -91.04617 | 7395 ft | 257 kts | 307° |
| 2026-04-15 10:36 | 41.73778 | -91.21024 | 7304 ft | 5349 kts | 307° |
| 2026-04-15 10:36 | 41.77385 | -91.27398 | 7154 ft | 249 kts | 302° |
| 2026-04-15 10:36 | 41.78471 | -91.29329 | 6369 ft | 268 kts | 301° |
| 2026-04-15 10:37 | 41.79581 | -91.31371 | 5527 ft | 271 kts | 300° |
| 2026-04-15 10:37 | 41.80646 | -91.33378 | 4860 ft | 262 kts | 300° |
| 2026-04-15 10:37 | 41.81646 | -91.35303 | 4635 ft | 238 kts | 299° |
| 2026-04-15 10:37 | 41.82546 | -91.37077 | 4441 ft | 221 kts | 297° |
| 2026-04-15 10:38 | 41.83355 | -91.38846 | 4252 ft | 222 kts | 294° |
| 2026-04-15 10:38 | 41.84083 | -91.40630 | 4078 ft | 220 kts | 292° |
| 2026-04-15 10:38 | 41.84757 | -91.42505 | 3873 ft | 219 kts | 289° |
| 2026-04-15 10:38 | 41.85347 | -91.44390 | 3745 ft | 219 kts | 287° |
| 2026-04-15 10:39 | 41.85854 | -91.46275 | 3635 ft | 218 kts | 284° |
| 2026-04-15 10:39 | 41.85981 | -91.46799 | 3601 ft | 217 kts | 283° |
| 2026-04-15 10:39 | 41.86146 | -91.47522 | 3668 ft | 211 kts | 282° |
| 2026-04-15 10:40 | 41.86530 | -91.49460 | 3993 ft | 216 kts | 279° |
| 2026-04-15 10:40 | 41.86841 | -91.51411 | 4186 ft | 207 kts | 277° |
| 2026-04-15 10:40 | 41.87123 | -91.53243 | 3896 ft | 195 kts | 279° |
| 2026-04-15 10:40 | 41.87514 | -91.55000 | 3601 ft | 197 kts | 284° |
| 2026-04-15 10:41 | 41.87919 | -91.56713 | 3308 ft | 197 kts | 280° |
| 2026-04-15 10:41 | 41.88255 | -91.58552 | 3056 ft | 205 kts | 278° |
| 2026-04-15 10:41 | 41.88479 | -91.60456 | 2819 ft | 208 kts | 272° |
| 2026-04-15 10:41 | 41.88534 | -91.62326 | 2739 ft | 190 kts | 266° |
| 2026-04-15 10:42 | 41.88480 | -91.63999 | 2598 ft | 170 kts | 263° |
| 2026-04-15 10:42 | 41.88452 | -91.65535 | 2300 ft | 159 kts | 264° |
| 2026-04-15 10:42 | 41.88424 | -91.66985 | 1902 ft | 155 kts | 265° |
| 2026-04-15 10:42 | 41.88422 | -91.68395 | 1492 ft | 146 kts | 267° |
| 2026-04-15 10:43 | 41.88451 | -91.69781 | 955 ft | 149 kts | 269° |
| 2026-04-15 10:43 | 41.88444 | -91.71007 | 870 ft | 97 kts | 270° |
| 2026-04-15 10:43 | 41.88449 | -91.71502 | 866 ft | 10 kts | 270° |
| 2026-04-15 10:43 | 41.88449 | -91.71508 | 866 ft | 0 kts | 270° |
| 2026-04-15 10:44 | 41.88457 | -91.71544 | 858 ft | 1 kts | 302° |
| 2026-04-15 10:44 | 41.88464 | -91.71543 | 854 ft | 1 kts | 8° |
| 2026-04-15 10:44 | 41.88503 | -91.71514 | 856 ft | 9 kts | 22° |
| 2026-04-15 10:44 | 41.88568 | -91.71496 | 867 ft | 10 kts | 26° |
| 2026-04-15 10:45 | 41.88585 | -91.71410 | 868 ft | 11 kts | 90° |
| 2026-04-15 10:45 | 41.88583 | -91.71211 | 870 ft | 30 kts | 91° |
| 2026-04-15 10:45 | 41.88579 | -91.70901 | 872 ft | 34 kts | 91° |
| 2026-04-15 10:45 | 41.88573 | -91.70576 | 871 ft | 35 kts | 91° |
| 2026-04-15 10:46 | 41.88571 | -91.70264 | 873 ft | 30 kts | 91° |
| 2026-04-15 10:46 | 41.88623 | -91.70145 | 874 ft | 9 kts | 345° |
| 2026-04-15 10:46 | 41.88687 | -91.70188 | 873 ft | 12 kts | 320° |
| 2026-04-15 10:46 | 41.88718 | -91.70293 | 873 ft | 13 kts | 304° |
| 2026-04-15 10:47 | 41.88808 | -91.70289 | 873 ft | 16 kts | 42° |
| 2026-04-15 10:47 | 41.88820 | -91.70194 | 873 ft | 0 kts | 106° |
| 2026-04-15 10:47 | 41.88818 | -91.70180 | 873 ft | 0 kts | 103° |
| 2026-04-15 10:47 | 41.88818 | -91.70181 | 873 ft | 0 kts | 103° |
| 2026-04-15 11:34 | 41.88818 | -91.70180 | 901 ft | 0 kts | 103° |